Time;durP1;ratioP1;P1;durP2;ratioP2;P2;SDS_P1;SDS_P2;PMS_P1;PMS_P2;Temp;Humidity;BMP_temperature;BMP_pressure;BME280_temperature;BME280_humidity;BME280_pressure;Samples;Min_cycle;Max_cycle;Signal;HPM_P1;HPM_P2
2022/03/17 00:01:32;;;;;;;39.50;29.70;;;;;;;3.69;100.00;97196.47;5032196;28;20431;-74
2022/03/17 00:03:59;;;;;;;45.73;31.50;;;;;;;3.55;100.00;97176.06;5031858;28;20562;-73
2022/03/17 00:06:27;;;;;;;41.23;29.80;;;;;;;3.77;100.00;97209.06;5015530;28;20845;-73
2022/03/17 00:08:54;;;;;;;44.50;32.60;;;;;;;3.55;100.00;97196.97;5032025;28;20433;-73
2022/03/17 00:11:22;;;;;;;36.10;30.93;;;;;;;3.80;100.00;97211.16;5031752;28;21049;-73
2022/03/17 00:13:49;;;;;;;39.80;30.70;;;;;;;3.88;100.00;97210.63;5031696;28;20508;-73
2022/03/17 00:16:15;;;;;;;42.07;29.20;;;;;;;3.73;100.00;97200.13;5033148;28;20439;-73
2022/03/17 00:18:42;;;;;;;49.77;31.33;;;;;;;3.75;100.00;97177.94;5031707;28;20444;-73
2022/03/17 00:21:12;;;;;;;39.50;31.70;;;;;;;3.78;100.00;97187.88;5048943;28;20444;-73
2022/03/17 00:23:39;;;;;;;40.80;31.63;;;;;;;3.51;100.00;97150.72;5031693;28;20459;-73
2022/03/17 00:26:05;;;;;;;37.40;30.00;;;;;;;3.96;100.00;97209.31;5031479;28;20468;-73
2022/03/17 00:28:32;;;;;;;37.20;28.47;;;;;;;3.98;100.00;97210.63;5026105;28;20969;-73
2022/03/17 00:30:59;;;;;;;35.40;29.47;;;;;;;3.88;100.00;97194.16;5025415;28;20812;-73
2022/03/17 00:33:26;;;;;;;39.57;29.20;;;;;;;3.94;100.00;97214.81;5024137;28;20817;-73
2022/03/17 00:35:52;;;;;;;39.70;30.60;;;;;;;3.92;100.00;97205.66;5025665;28;20542;-73
2022/03/17 00:38:19;;;;;;;40.07;31.17;;;;;;;3.89;100.00;97219.28;5015142;28;20528;-73
2022/03/17 00:40:46;;;;;;;38.73;30.40;;;;;;;3.92;100.00;97216.91;5032736;28;20468;-73
2022/03/17 00:43:15;;;;;;;42.37;31.40;;;;;;;3.94;100.00;97229.72;5031387;28;20948;-73
2022/03/17 00:45:44;;;;;;;36.60;28.80;;;;;;;3.93;100.00;97226.31;5031072;28;20491;-73
2022/03/17 00:48:11;;;;;;;43.07;32.67;;;;;;;3.90;100.00;97229.47;5031200;28;20497;-73
2022/03/17 00:50:38;;;;;;;41.27;31.70;;;;;;;3.82;100.00;97216.91;5032546;28;20520;-73
2022/03/17 00:53:05;;;;;;;36.57;31.00;;;;;;;3.55;100.00;97188.34;5032512;28;20455;-73
2022/03/17 00:55:31;;;;;;;39.33;30.07;;;;;;;3.54;100.00;97192.81;5031022;28;20549;-72
2022/03/17 00:57:58;;;;;;;40.50;30.60;;;;;;;3.69;100.00;97214.78;5030918;28;21010;-73
2022/03/17 01:00:25;;;;;;;31.90;27.27;;;;;;;3.53;100.00;97199.06;5034136;28;20436;-73
2022/03/17 01:02:53;;;;;;;36.10;29.40;;;;;;;3.60;100.00;97216.34;5014895;28;20462;-73
2022/03/17 01:05:22;;;;;;;44.53;33.43;;;;;;;3.58;100.00;97207.97;5030787;28;20537;-73
2022/03/17 01:07:50;;;;;;;36.13;29.33;;;;;;;3.39;100.00;97187.56;5030841;28;20444;-73
2022/03/17 01:10:17;;;;;;;37.60;29.67;;;;;;;3.61;100.00;97213.50;5030787;28;20498;-73
2022/03/17 01:12:48;;;;;;;36.10;29.30;;;;;;;3.65;100.00;97213.75;5030778;28;20486;-73
2022/03/17 01:15:17;;;;;;;38.33;29.90;;;;;;;3.53;100.00;97217.38;5030781;28;20462;-73
2022/03/17 01:17:44;;;;;;;32.70;27.53;;;;;;;3.15;100.00;97178.59;5030769;28;20460;-73
2022/03/17 01:20:12;;;;;;;37.60;29.57;;;;;;;3.33;100.00;97217.31;5030595;28;20440;-73
2022/03/17 01:22:38;;;;;;;36.00;27.87;;;;;;;3.05;100.00;97191.63;5030785;28;21016;-73
2022/03/17 01:25:06;;;;;;;37.53;29.30;;;;;;;2.56;100.00;97187.50;5031699;28;20459;-74
2022/03/17 01:27:34;;;;;;;34.00;29.50;;;;;;;2.73;100.00;97215.25;5030660;28;20863;-73
2022/03/17 01:30:03;;;;;;;43.10;30.83;;;;;;;2.64;100.00;97183.63;5013982;28;21120;-73
2022/03/17 01:32:31;;;;;;;33.10;27.83;;;;;;;2.78;100.00;97192.56;5030372;28;20442;-73
2022/03/17 01:34:59;;;;;;;34.77;28.57;;;;;;;2.80;100.00;97193.09;5004014;28;20550;-73
2022/03/17 01:37:25;;;;;;;34.87;28.50;;;;;;;2.99;100.00;97219.56;5030448;28;20526;-73
2022/03/17 01:39:53;;;;;;;35.70;29.70;;;;;;;2.67;100.00;97175.28;5031657;28;20427;-73
2022/03/17 01:42:20;;;;;;;35.90;29.57;;;;;;;2.79;100.00;97206.41;5030172;28;20539;-73
2022/03/17 01:44:48;;;;;;;39.40;32.60;;;;;;;2.63;100.00;97192.50;5030167;28;20440;-73
2022/03/17 01:47:31;;;;;;;40.90;29.30;;;;;;;2.26;100.00;97167.22;5030016;28;20455;-74
2022/03/17 01:50:03;;;;;;;38.33;29.53;;;;;;;2.44;100.00;97173.09;5031488;28;20456;-73
2022/03/17 01:52:30;;;;;;;38.37;30.57;;;;;;;2.56;100.00;97179.69;5029992;28;20435;-73
2022/03/17 01:54:57;;;;;;;36.70;28.57;;;;;;;2.60;100.00;97178.13;5030085;28;20447;-73
2022/03/17 01:57:24;;;;;;;37.47;30.57;;;;;;;2.64;100.00;97176.56;5031189;28;20426;-73
2022/03/17 01:59:52;;;;;;;36.63;28.70;;;;;;;2.70;100.00;97164.34;5029876;28;20833;-73
2022/03/17 02:02:20;;;;;;;39.00;31.00;;;;;;;2.71;100.00;97163.31;5030067;28;20535;-73
2022/03/17 02:04:48;;;;;;;38.43;29.80;;;;;;;2.71;100.00;97163.31;5030022;28;21097;-73
2022/03/17 02:07:15;;;;;;;36.17;29.13;;;;;;;2.68;100.00;97161.22;5031162;28;20522;-73
2022/03/17 02:09:44;;;;;;;38.60;30.10;;;;;;;2.70;100.00;97169.56;5029187;28;20456;-73
2022/03/17 02:14:59;;;;;;;39.03;29.43;;;;;;;2.57;100.00;97155.16;5031043;28;20554;-73
2022/03/17 02:17:30;;;;;;;40.17;29.90;;;;;;;2.52;100.00;97162.94;5031100;28;20438;-73
2022/03/17 02:19:59;;;;;;;37.20;27.83;;;;;;;2.53;100.00;97159.28;5029657;28;20505;-73
2022/03/17 02:22:27;;;;;;;37.50;30.10;;;;;;;2.58;100.00;97148.09;5030926;28;20442;-73
2022/03/17 02:27:42;;;;;;;39.30;30.50;;;;;;;2.72;100.00;97164.09;5029571;28;20463;-73
2022/03/17 02:30:10;;;;;;;40.37;31.83;;;;;;;2.85;100.00;97172.22;5029797;28;20424;-73
2022/03/17 02:32:37;;;;;;;39.03;31.63;;;;;;;2.71;100.00;97170.34;5028874;28;20934;-73
2022/03/17 02:35:09;;;;;;;38.87;31.80;;;;;;;2.62;100.00;97175.25;5018518;28;20452;-73
2022/03/17 02:37:36;;;;;;;41.73;32.20;;;;;;;2.67;100.00;97183.09;5029446;28;20439;-73
2022/03/17 02:40:06;;;;;;;34.33;28.67;;;;;;;2.58;100.00;97177.59;5029589;28;20517;-73
2022/03/17 02:42:34;;;;;;;35.60;27.47;;;;;;;2.57;100.00;97173.41;5030801;28;20515;-73
2022/03/17 02:45:01;;;;;;;33.70;28.53;;;;;;;2.35;100.00;97168.34;5012974;28;21244;-73
2022/03/17 02:47:28;;;;;;;37.37;27.93;;;;;;;2.10;100.00;97136.09;5029281;28;20484;-73
2022/03/17 02:49:55;;;;;;;34.43;27.73;;;;;;;2.16;100.00;97146.31;5030745;28;20778;-73
2022/03/17 02:52:23;;;;;;;35.80;26.87;;;;;;;2.23;100.00;97178.16;5013066;28;20461;-73
2022/03/17 02:54:51;;;;;;;39.80;29.73;;;;;;;2.16;100.00;97175.00;5030585;28;20453;-73
2022/03/17 02:57:18;;;;;;;37.47;30.30;;;;;;;2.23;100.00;97175.56;5029386;28;20506;-73
2022/03/17 02:59:48;;;;;;;39.43;28.10;;;;;;;2.29;100.00;97185.00;5029575;28;20512;-73
2022/03/17 03:02:15;;;;;;;43.37;31.07;;;;;;;2.21;100.00;97172.41;5013085;28;20486;-73
2022/03/17 03:04:42;;;;;;;38.53;30.80;;;;;;;2.06;100.00;97120.16;5030576;28;20456;-73
2022/03/17 03:07:09;;;;;;;39.13;32.53;;;;;;;2.28;100.00;97169.59;5029733;28;20506;-73
2022/03/17 03:09:36;;;;;;;39.63;31.00;;;;;;;1.94;100.00;97153.47;5033715;28;20481;-73
2022/03/17 03:12:04;;;;;;;34.13;27.20;;;;;;;2.13;100.00;97166.88;5034516;28;20448;-73
2022/03/17 03:14:31;;;;;;;37.37;29.50;;;;;;;1.75;100.00;97121.78;5032821;28;21061;-73
2022/03/17 03:16:57;;;;;;;36.03;27.70;;;;;;;2.14;100.00;97174.47;5030105;28;20506;-73
2022/03/17 03:19:24;;;;;;;39.20;30.43;;;;;;;2.09;100.00;97171.81;5018155;28;20476;-73
2022/03/17 03:21:51;;;;;;;36.70;29.50;;;;;;;1.59;100.00;97133.88;5017046;28;20979;-73
2022/03/17 03:24:18;;;;;;;39.53;28.80;;;;;;;1.54;100.00;97166.94;5033080;28;20872;-73
2022/03/17 03:26:45;;;;;;;37.33;28.57;;;;;;;1.36;100.00;97127.19;5032983;28;20454;-74
2022/03/17 03:29:28;;;;;;;37.17;28.63;;;;;;;1.69;100.00;97177.50;5066222;28;20539;-73
2022/03/17 03:31:57;;;;;;;37.87;29.90;;;;;;;1.68;100.00;97168.91;5034239;28;20424;-73
2022/03/17 03:34:25;;;;;;;42.20;30.80;;;;;;;1.82;100.00;97177.09;5003110;28;20797;-73
2022/03/17 03:39:39;;;;;;;42.87;32.10;;;;;;;1.54;100.00;97128.66;5032645;28;20449;-73
2022/03/17 03:42:07;;;;;;;42.10;31.73;;;;;;;1.81;100.00;97178.13;5032856;28;20852;-73
2022/03/17 03:44:35;;;;;;;36.47;28.33;;;;;;;1.52;100.00;97188.03;5032509;28;20467;-73
2022/03/17 03:47:03;;;;;;;40.03;27.67;;;;;;;1.22;100.00;97154.69;5032480;28;20519;-73
2022/03/17 03:49:30;;;;;;;40.07;29.77;;;;;;;1.36;100.00;97186.31;5016310;28;20530;-74
2022/03/17 03:51:57;;;;;;;39.33;30.97;;;;;;;1.34;100.00;97191.00;5033161;28;20438;-74
2022/03/17 03:54:24;;;;;;;41.13;29.53;;;;;;;1.48;100.00;97195.56;5033820;28;20963;-73
2022/03/17 03:56:56;;;;;;;38.53;28.87;;;;;;;1.54;100.00;97190.41;5032538;28;20444;-73
2022/03/17 03:59:25;;;;;;;37.73;28.50;;;;;;;1.51;100.00;97180.47;5016009;28;20481;-73
2022/03/17 04:01:54;;;;;;;38.53;31.13;;;;;;;1.86;100.00;97196.41;5032171;28;20441;-73
2022/03/17 04:04:22;;;;;;;41.83;30.83;;;;;;;1.44;100.00;97157.22;5033460;28;20974;-73
2022/03/17 04:06:50;;;;;;;33.70;27.50;;;;;;;1.66;100.00;97191.03;5032003;28;20466;-73
2022/03/17 04:09:26;;;;;;;41.17;30.30;;;;;;;1.29;100.00;97193.53;5031935;28;20435;-73
2022/03/17 04:11:54;;;;;;;36.63;26.63;;;;;;;1.22;100.00;97190.34;5032051;28;20428;-73
2022/03/17 04:14:22;;;;;;;34.97;26.30;;;;;;;1.29;100.00;97185.72;5031802;28;20478;-73
2022/03/17 04:16:49;;;;;;;46.60;30.77;;;;;;;1.39;100.00;97197.03;5031832;28;20844;-73
2022/03/17 04:19:16;;;;;;;35.53;28.63;;;;;;;1.45;100.00;97190.03;5031906;28;20436;-73
2022/03/17 04:21:46;;;;;;;37.10;26.47;;;;;;;1.36;100.00;97189.72;5033004;28;20796;-73
2022/03/17 04:24:14;;;;;;;35.70;28.40;;;;;;;1.45;100.00;97187.44;5031611;28;20579;-73
2022/03/17 04:26:41;;;;;;;31.60;26.17;;;;;;;1.38;100.00;97184.25;5031578;28;20455;-73
2022/03/17 04:29:09;;;;;;;39.03;30.17;;;;;;;1.43;100.00;97189.50;5031755;28;20513;-73
2022/03/17 04:31:38;;;;;;;39.20;32.53;;;;;;;1.40;100.00;97169.94;5031474;28;20483;-73
2022/03/17 04:34:05;;;;;;;48.00;34.90;;;;;;;1.55;100.00;97197.97;5018424;28;20453;-73
2022/03/17 04:36:33;;;;;;;42.47;33.53;;;;;;;1.59;100.00;97190.44;5026405;28;20462;-73
2022/03/17 04:39:00;;;;;;;36.23;29.70;;;;;;;1.74;100.00;97196.59;5024642;28;20543;-73
2022/03/17 04:41:27;;;;;;;40.13;31.53;;;;;;;1.44;100.00;97176.22;5031507;28;20513;-73
2022/03/17 04:43:54;;;;;;;42.40;31.63;;;;;;;1.18;100.00;97177.81;5032563;28;20455;-73
2022/03/17 04:46:21;;;;;;;37.47;31.27;;;;;;;1.05;100.00;97182.59;5031120;28;20507;-73
2022/03/17 04:48:48;;;;;;;37.57;28.80;;;;;;;1.17;100.00;97201.47;5031214;28;20438;-73
2022/03/17 04:51:16;;;;;;;42.33;29.97;;;;;;;1.23;100.00;97189.31;5031650;28;20523;-73
2022/03/17 04:53:42;;;;;;;42.00;31.90;;;;;;;1.03;100.00;97166.44;5031002;28;20440;-73
2022/03/17 04:56:11;;;;;;;35.67;27.67;;;;;;;1.10;100.00;97209.50;5032490;28;21156;-73
2022/03/17 04:58:42;;;;;;;34.07;28.57;;;;;;;0.92;100.00;97216.81;5031076;28;20455;-73
2022/03/17 05:01:15;;;;;;;42.03;31.03;;;;;;;1.00;100.00;97195.56;5031210;28;20481;-73
2022/03/17 05:03:42;;;;;;;37.27;29.70;;;;;;;1.33;100.00;97218.06;5032246;28;20431;-73
2022/03/17 05:06:35;;;;;;;39.73;29.57;;;;;;;1.28;100.00;97213.59;5032220;28;20993;-73
2022/03/17 05:09:05;;;;;;;36.40;29.40;;;;;;;1.14;100.00;97196.78;5008232;28;20973;-73
2022/03/17 05:11:32;;;;;;;36.53;27.50;;;;;;;1.09;100.00;97225.38;5017563;28;20944;-73
2022/03/17 05:13:58;;;;;;;36.70;28.67;;;;;;;1.18;100.00;97226.50;5032200;28;20479;-74
2022/03/17 05:16:25;;;;;;;33.17;28.23;;;;;;;1.09;100.00;97231.38;5031934;28;20523;-74
2022/03/17 05:18:52;;;;;;;38.60;29.27;;;;;;;1.04;100.00;97207.06;5019107;28;20449;-73
2022/03/17 05:21:19;;;;;;;35.87;27.77;;;;;;;1.02;100.00;97209.13;5030670;28;20844;-74
2022/03/17 05:23:45;;;;;;;38.27;26.57;;;;;;;0.97;100.00;97196.84;5023607;28;20478;-74
2022/03/17 05:26:12;;;;;;;38.30;27.70;;;;;;;1.21;100.00;97243.47;5023789;28;20998;-74
2022/03/17 05:28:39;;;;;;;68.67;42.27;;;;;;;1.22;100.00;97232.03;5011021;28;20436;-74
2022/03/17 05:31:06;;;;;;;45.17;32.73;;;;;;;1.09;100.00;97209.75;5008695;28;20455;-74
2022/03/17 05:33:33;;;;;;;50.13;36.47;;;;;;;1.04;100.00;97246.91;5022066;28;20491;-74
2022/03/17 05:35:59;;;;;;;39.80;29.20;;;;;;;0.82;100.00;97243.53;5023699;28;20439;-74
2022/03/17 05:38:26;;;;;;;42.43;31.87;;;;;;;0.78;100.00;97245.00;5026889;28;20796;-74
2022/03/17 05:40:52;;;;;;;51.60;32.07;;;;;;;0.64;100.00;97228.16;5028914;28;20527;-74
2022/03/17 05:43:20;;;;;;;48.87;34.60;;;;;;;0.83;100.00;97247.69;5005409;28;20531;-74
2022/03/17 05:45:46;;;;;;;58.63;37.23;;;;;;;1.08;100.00;97248.00;5009625;28;20551;-74
2022/03/17 05:48:13;;;;;;;49.57;37.53;;;;;;;1.05;100.00;97224.25;5011850;28;20460;-74
2022/03/17 05:50:41;;;;;;;45.60;33.97;;;;;;;1.28;100.00;97254.47;5026187;28;20555;-73
2022/03/17 05:53:09;;;;;;;40.53;32.03;;;;;;;1.19;100.00;97257.50;5020992;28;20435;-73
2022/03/17 05:55:36;;;;;;;41.60;29.27;;;;;;;1.43;100.00;97262.47;5026052;28;21021;-73
2022/03/17 05:58:04;;;;;;;71.80;48.80;;;;;;;1.46;100.00;97261.97;5028612;28;20458;-73
2022/03/17 06:00:31;;;;;;;98.37;54.43;;;;;;;1.33;100.00;97263.13;5030062;28;20887;-73
2022/03/17 06:02:59;;;;;;;120.00;76.57;;;;;;;1.36;100.00;97231.41;5046634;28;20443;-73
2022/03/17 06:05:28;;;;;;;91.10;61.33;;;;;;;1.51;100.00;97259.44;5026443;28;20467;-73
2022/03/17 06:08:00;;;;;;;96.87;62.07;;;;;;;1.48;100.00;97262.53;5020511;28;20467;-73
2022/03/17 06:10:32;;;;;;;78.40;54.13;;;;;;;1.42;100.00;97276.53;5011702;28;20457;-73
2022/03/17 06:13:04;;;;;;;62.00;46.73;;;;;;;1.81;100.00;97284.22;5011399;28;20928;-74
2022/03/17 06:15:33;;;;;;;56.90;43.90;;;;;;;1.91;100.00;97287.72;5003109;28;20491;-74
2022/03/17 06:18:03;;;;;;;50.40;39.33;;;;;;;1.93;100.00;97282.25;5030841;28;20915;-74
2022/03/17 06:20:32;;;;;;;49.00;37.67;;;;;;;2.13;100.00;97290.25;5010045;28;20436;-74
2022/03/17 06:23:01;;;;;;;52.97;37.80;;;;;;;2.07;100.00;97283.44;5044122;28;20479;-74
2022/03/17 06:25:30;;;;;;;45.73;36.80;;;;;;;2.19;100.00;97276.22;5029620;28;20560;-73
2022/03/17 06:28:03;;;;;;;41.37;33.03;;;;;;;2.27;100.00;97294.06;5011184;28;20503;-73
2022/03/17 06:30:31;;;;;;;45.07;34.83;;;;;;;1.92;100.00;97218.91;4993690;28;20436;-74
2022/03/17 06:33:01;;;;;;;42.70;33.83;;;;;;;2.37;100.00;97307.16;5010203;28;20437;-73
2022/03/17 06:35:28;;;;;;;49.27;36.33;;;;;;;2.30;100.00;97311.81;5053602;28;20455;-73
2022/03/17 06:37:58;;;;;;;51.93;37.03;;;;;;;2.25;100.00;97303.94;5031017;28;20455;-73
2022/03/17 06:40:27;;;;;;;56.57;38.80;;;;;;;2.07;100.00;97293.88;5029756;28;20429;-73
2022/03/17 06:42:55;;;;;;;58.23;37.97;;;;;;;1.99;100.00;97304.72;5062987;28;20432;-73
2022/03/17 06:45:23;;;;;;;52.10;37.63;;;;;;;1.89;100.00;97296.84;5029253;28;20550;-73
2022/03/17 06:47:49;;;;;;;54.10;37.33;;;;;;;1.70;100.00;97298.97;5025507;28;20880;-73
2022/03/17 06:50:17;;;;;;;48.10;35.13;;;;;;;1.83;100.00;97303.00;5027090;28;20479;-73
2022/03/17 06:52:44;;;;;;;48.87;33.70;;;;;;;1.78;100.00;97301.94;5043633;28;20526;-73
2022/03/17 06:55:11;;;;;;;51.23;33.97;;;;;;;1.83;100.00;97306.41;5024794;28;20460;-73
2022/03/17 06:57:39;;;;;;;41.93;32.00;;;;;;;1.62;100.00;97292.38;5032629;28;20490;-73
2022/03/17 07:00:08;;;;;;;43.07;33.23;;;;;;;1.60;100.00;97296.25;5035440;28;20542;-73
2022/03/17 07:02:35;;;;;;;45.47;32.70;;;;;;;1.84;100.00;97313.19;5009112;28;20438;-73
2022/03/17 07:05:04;;;;;;;54.97;40.07;;;;;;;1.94;100.00;97302.09;5020972;28;20489;-73
2022/03/17 07:07:31;;;;;;;44.80;37.07;;;;;;;2.02;100.00;97299.84;5035994;28;20462;-73
2022/03/17 07:09:58;;;;;;;50.30;37.27;;;;;;;1.84;100.00;97279.31;5034361;28;20442;-73
2022/03/17 07:12:24;;;;;;;51.00;37.20;;;;;;;2.06;100.00;97306.13;5035619;28;20452;-73
2022/03/17 07:14:51;;;;;;;46.30;33.80;;;;;;;2.05;100.00;97311.59;5035128;28;20509;-73
2022/03/17 07:17:20;;;;;;;48.90;36.63;;;;;;;2.02;100.00;97307.66;5034086;28;20436;-73
2022/03/17 07:22:24;;;;;;;53.37;35.80;;;;;;;1.92;100.00;97273.66;5024965;28;20424;-73
2022/03/17 07:24:51;;;;;;;54.43;36.03;;;;;;;2.35;100.00;97311.06;5017228;28;20460;-73
2022/03/17 07:27:18;;;;;;;46.90;35.20;;;;;;;2.15;100.00;97259.50;5024871;28;20911;-73
2022/03/17 07:29:44;;;;;;;48.47;36.50;;;;;;;2.37;100.00;97280.28;5033756;28;20427;-73
2022/03/17 07:32:11;;;;;;;57.07;41.77;;;;;;;2.63;100.00;97321.19;5024521;28;20916;-73
2022/03/17 07:34:38;;;;;;;52.30;38.97;;;;;;;2.59;100.00;97327.16;5017608;28;20451;-73
2022/03/17 07:37:05;;;;;;;53.90;38.60;;;;;;;2.46;100.00;97304.88;5033666;28;21010;-73
2022/03/17 07:39:32;;;;;;;45.40;35.70;;;;;;;2.55;100.00;97326.88;5029265;28;20540;-73
2022/03/17 07:41:59;;;;;;;50.90;38.77;;;;;;;2.69;100.00;97326.47;5024720;28;20489;-73
2022/03/17 07:44:44;;;;;;;50.67;38.57;;;;;;;2.56;100.00;97285.91;5053291;28;20455;-73
2022/03/17 07:47:47;;;;;;;56.30;37.90;;;;;;;3.00;100.00;97335.28;5029254;28;20867;-73
2022/03/17 07:50:15;;;;;;;61.80;41.63;;;;;;;2.90;100.00;97304.66;5013893;28;20539;-73
2022/03/17 07:52:42;;;;;;;64.10;40.60;;;;;;;3.22;100.00;97343.78;5027218;28;20445;-73
2022/03/17 07:55:10;;;;;;;50.17;38.50;;;;;;;3.29;100.00;97346.94;5027301;28;20478;-73
2022/03/17 07:57:38;;;;;;;55.00;39.70;;;;;;;3.29;100.00;97338.31;5034901;28;20423;-73
2022/03/17 08:00:07;;;;;;;56.73;39.90;;;;;;;3.32;100.00;97340.41;5033526;28;20539;-73
2022/03/17 08:02:40;;;;;;;58.03;38.17;;;;;;;3.34;100.00;97339.13;5033733;28;20766;-73
2022/03/17 08:05:13;;;;;;;56.70;40.63;;;;;;;3.16;100.00;97297.75;5035323;28;20451;-73
2022/03/17 08:07:40;;;;;;;49.00;38.60;;;;;;;3.47;100.00;97338.69;5033970;28;20470;-73
2022/03/17 08:10:08;;;;;;;52.83;39.07;;;;;;;3.53;100.00;97334.25;5005099;28;20466;-73
2022/03/17 08:12:35;;;;;;;56.03;41.87;;;;;;;3.55;100.00;97326.91;5025764;28;20441;-73
2022/03/17 08:15:05;;;;;;;56.57;42.47;;;;;;;3.77;100.00;97337.22;5001841;28;20563;-73
2022/03/17 08:17:33;;;;;;;52.63;39.60;;;;;;;3.67;100.00;97308.41;5036016;28;20441;-73
2022/03/17 08:20:00;;;;;;;53.20;40.73;;;;;;;3.98;100.00;97328.34;5040090;28;20428;-72
2022/03/17 08:22:26;;;;;;;50.23;37.03;;;;;;;3.68;100.00;97263.69;5050102;28;20490;-72
2022/03/17 08:24:53;;;;;;;48.20;36.47;;;;;;;4.06;100.00;97303.53;5035287;28;20555;-73
2022/03/17 08:27:20;;;;;;;49.53;38.53;;;;;;;4.32;100.00;97328.69;5024427;28;20554;-73
2022/03/17 08:29:48;;;;;;;50.93;36.47;;;;;;;4.22;100.00;97304.31;5034256;28;20928;-73
2022/03/17 08:32:15;;;;;;;50.87;38.17;;;;;;;4.42;100.00;97333.94;5024728;28;20428;-73
2022/03/17 08:34:42;;;;;;;54.80;39.63;;;;;;;4.44;100.00;97326.59;5017898;28;20453;-73
2022/03/17 08:37:09;;;;;;;52.30;38.07;;;;;;;4.63;100.00;97334.69;5041985;28;20536;-73
2022/03/17 08:39:36;;;;;;;52.27;42.53;;;;;;;4.56;100.00;97310.63;5028218;28;20441;-72
2022/03/17 08:42:04;;;;;;;53.10;39.10;;;;;;;4.70;100.00;97313.50;5008480;28;20475;-73
2022/03/17 08:44:30;;;;;;;48.70;38.10;;;;;;;4.99;100.00;97340.69;5027458;28;20528;-73
2022/03/17 08:49:43;;;;;;;54.60;39.00;;;;;;;5.18;100.00;97346.16;5027137;28;20429;-73
2022/03/17 08:52:10;;;;;;;53.30;38.60;;;;;;;5.02;100.00;97321.03;5036155;28;20478;-73
2022/03/17 08:54:38;;;;;;;52.40;38.43;;;;;;;5.27;100.00;97352.44;5025238;28;20495;-73
2022/03/17 08:57:05;;;;;;;60.23;40.73;;;;;;;5.28;100.00;97345.34;5022636;28;20432;-73
2022/03/17 08:59:34;;;;;;;46.63;37.80;;;;;;;5.37;100.00;97350.84;5034241;28;20434;-73
2022/03/17 09:02:07;;;;;;;42.30;34.67;;;;;;;5.43;100.00;97355.00;5020801;28;20446;-73
2022/03/17 09:04:34;;;;;;;50.20;34.80;;;;;;;5.49;100.00;97359.97;5048905;28;20467;-73
2022/03/17 09:07:02;;;;;;;44.47;35.67;;;;;;;5.48;100.00;97334.03;5032260;28;20440;-73
2022/03/17 09:09:31;;;;;;;47.60;35.73;;;;;;;5.55;100.00;97350.25;5033176;28;20534;-73
2022/03/17 09:12:04;;;;;;;59.33;38.43;;;;;;;5.61;100.00;97363.09;5033524;28;20419;-73
2022/03/17 09:14:33;;;;;;;56.13;39.20;;;;;;;5.60;100.00;97364.13;5031938;28;21084;-73
2022/03/17 09:17:00;;;;;;;51.37;37.43;;;;;;;5.63;100.00;97366.22;5032067;28;20471;-73
2022/03/17 09:19:27;;;;;;;46.03;35.50;;;;;;;5.62;100.00;97346.28;5030678;28;20460;-73
2022/03/17 09:21:54;;;;;;;44.63;34.80;;;;;;;5.50;100.00;97326.66;5025842;28;20432;-73
2022/03/17 09:24:20;;;;;;;50.10;36.40;;;;;;;5.78;100.00;97360.13;5025798;28;20448;-73
2022/03/17 09:26:47;;;;;;;54.90;36.20;;;;;;;5.86;100.00;97374.50;5031495;28;20435;-73
2022/03/17 09:29:16;;;;;;;47.63;35.97;;;;;;;5.58;100.00;97341.84;5031639;28;20582;-73
2022/03/17 09:31:43;;;;;;;45.13;34.63;;;;;;;5.81;100.00;97375.34;5031435;28;20534;-73
2022/03/17 09:34:11;;;;;;;43.07;34.63;;;;;;;5.74;100.00;97360.91;5018212;28;20488;-73
2022/03/17 09:36:37;;;;;;;43.60;35.10;;;;;;;5.36;100.00;97295.00;5031346;28;20527;-73
2022/03/17 09:41:49;;;;;;;40.93;34.10;;;;;;;5.84;100.00;97343.28;5021817;28;20531;-73
2022/03/17 09:44:16;;;;;;;45.30;34.50;;;;;;;5.95;100.00;97356.41;5027983;28;21068;-73
2022/03/17 09:46:44;;;;;;;46.47;33.73;;;;;;;5.90;100.00;97341.47;4995573;28;20440;-73
2022/03/17 09:49:11;;;;;;;45.43;35.83;;;;;;;6.14;100.00;97362.59;5015806;28;20478;-73
2022/03/17 09:51:42;;;;;;;39.63;35.00;;;;;;;6.24;100.00;97380.91;5031297;28;20455;-73
2022/03/17 09:54:10;;;;;;;45.00;36.17;;;;;;;6.21;100.00;97357.84;5030887;28;20471;-73
2022/03/17 09:56:37;;;;;;;44.20;35.20;;;;;;;6.34;100.00;97380.06;5020555;28;20440;-73
2022/03/17 09:59:06;;;;;;;43.47;33.70;;;;;;;6.36;100.00;97385.84;5015531;28;20490;-73
2022/03/17 10:01:33;;;;;;;46.40;36.13;;;;;;;6.38;100.00;97350.34;5031531;28;20430;-73
2022/03/17 10:04:02;;;;;;;51.80;38.57;;;;;;;6.58;100.00;97383.59;5017976;28;20471;-73
2022/03/17 10:06:29;;;;;;;41.33;33.40;;;;;;;6.64;100.00;97390.38;5003429;28;20992;-73
2022/03/17 10:08:58;;;;;;;41.33;32.93;;;;;;;6.81;100.00;97395.22;5016779;28;20882;-74
2022/03/17 10:11:37;;;;;;;43.67;33.30;;;;;;;6.65;100.00;97391.16;5031131;28;20522;-73
2022/03/17 10:14:06;;;;;;;43.23;32.30;;;;;;;6.77;100.00;97396.84;4999268;28;20461;-73
2022/03/17 10:16:33;;;;;;;39.57;32.73;;;;;;;6.56;100.00;97369.97;5026880;28;20489;-73
2022/03/17 10:19:04;;;;;;;50.93;33.70;;;;;;;6.46;100.00;97367.38;5031213;28;20441;-73
2022/03/17 10:21:31;;;;;;;47.40;34.83;;;;;;;6.60;100.00;97397.25;5030967;28;20522;-73
2022/03/17 10:24:00;;;;;;;44.40;32.10;;;;;;;6.67;100.00;97395.06;5030799;28;20456;-73
2022/03/17 10:26:31;;;;;;;48.30;33.13;;;;;;;6.69;100.00;97405.34;5014497;28;20866;-73
2022/03/17 10:29:22;;;;;;;44.63;33.90;;;;;;;6.72;100.00;97381.91;5030631;28;20488;-73
2022/03/17 10:32:01;;;;;;;41.20;33.10;;;;;;;7.07;100.00;97407.09;5024901;28;20422;-73
2022/03/17 10:34:47;;;;;;;44.20;33.00;;;;;;;7.02;100.00;97388.75;5045448;28;20457;-73
2022/03/17 10:37:19;;;;;;;37.67;28.80;;;;;;;7.08;100.00;97392.16;5018652;28;20876;-74
2022/03/17 10:39:48;;;;;;;39.87;31.50;;;;;;;7.15;100.00;97397.06;5026907;28;20591;-73
2022/03/17 10:42:29;;;;;;;37.70;30.10;;;;;;;7.23;100.00;97410.41;5023459;28;20488;-73
2022/03/17 10:45:05;;;;;;;39.80;31.17;;;;;;;7.11;100.00;97402.09;5030522;28;20506;-73
2022/03/17 10:47:33;;;;;;;35.20;28.77;;;;;;;7.33;100.00;97414.78;5017288;28;20447;-73
2022/03/17 10:50:17;;;;;;;39.30;31.40;;;;;;;7.59;100.00;97412.66;5021156;28;20508;-73
2022/03/17 10:52:47;;;;;;;38.70;30.20;;;;;;;7.57;100.00;97420.84;5012304;28;20417;-74
2022/03/17 10:55:15;;;;;;;39.20;30.43;;;;;;;7.61;100.00;97400.00;5012540;28;20507;-74
2022/03/17 10:57:44;;;;;;;41.43;30.90;;;;;;;7.56;100.00;97395.59;5038942;28;20473;-74
2022/03/17 11:00:22;;;;;;;39.43;29.80;;;;;;;7.70;100.00;97406.22;5035863;28;20452;-73
2022/03/17 11:02:51;;;;;;;38.60;29.37;;;;;;;7.80;100.00;97410.59;5050352;28;20448;-73
2022/03/17 11:05:18;;;;;;;39.67;30.00;;;;;;;7.76;100.00;97412.25;5018618;28;20539;-73
2022/03/17 11:07:48;;;;;;;38.03;30.23;;;;;;;7.75;100.00;97415.94;5017622;28;20487;-73
2022/03/17 11:10:16;;;;;;;40.50;30.87;;;;;;;7.63;100.00;97403.94;5021917;28;20453;-73
2022/03/17 11:12:43;;;;;;;37.00;29.90;;;;;;;7.51;100.00;97387.75;5042087;28;20445;-73
2022/03/17 11:15:10;;;;;;;40.80;29.90;;;;;;;7.54;100.00;97387.19;5024362;28;20465;-73
2022/03/17 11:17:47;;;;;;;41.90;30.33;;;;;;;7.76;100.00;97426.19;5025457;28;20449;-71
2022/03/17 11:20:23;;;;;;;36.40;29.77;;;;;;;7.63;100.00;97406.59;5017553;28;20461;-74
2022/03/17 11:23:09;;;;;;;42.27;30.77;;;;;;;7.65;100.00;97403.66;5023319;28;20435;-74
2022/03/17 11:25:36;;;;;;;34.17;28.57;;;;;;;7.90;100.00;97419.19;5030125;28;20451;-75
2022/03/17 11:28:05;;;;;;;35.50;29.60;;;;;;;7.81;100.00;97405.06;5015513;28;20461;-74
2022/03/17 11:30:42;;;;;;;38.30;26.90;;;;;;;7.91;100.00;97420.75;5010463;28;20845;-75
2022/03/17 11:33:31;;;;;;;36.37;26.67;;;;;;;8.03;100.00;97417.72;5022961;28;20444;-74
2022/03/17 11:36:00;;;;;;;33.87;29.40;;;;;;;8.13;100.00;97411.50;5011824;28;20436;-74
2022/03/17 11:38:37;;;;;;;32.80;26.87;;;;;;;8.23;100.00;97406.91;5032143;28;20836;-74
2022/03/17 11:41:13;;;;;;;37.67;28.87;;;;;;;8.28;100.00;97408.69;5029902;28;20808;-74